KMNH

Monument Pass Airport

Monument Pass, Colorado, USA
METAR KMNH 202011Z AUTO 00000KT 10SM CLR 21/04 A3033 RMK AO2
Observed Flight Rules
Aug-20 @ 20:11 UTC (18 minutes ago) Visual Flight Rules
Visibility Clouds
10 miles
  • Clear skies
Temperatures Readings
Current 21°C / 70°F
Dewpoint 4°C / 39°F
Humidity 33%
Altimeter 30.33" Hg
Pressure 1027 hPa
Elevation 2152
METAR KMNH 202011Z AUTO 00000KT 10SM CLR 21/04 A3033 RMK AO2
Observed Flight Rules
Aug-20 @ 20:11 UTC
(18 minutes ago)
VFR
Clouds
  • Clear skies
Temperature Dewpoint
21°C / 70°F 4°C / 39°F
Humidity Altimeter Pressure
33% 30.33" Hg 1027 hPa